sensor_id;sensor_type;location;lat;lon;timestamp;pressure;altitude;pressure_sealevel;temperature;humidity
50854;BME280;44154;45.506;-122.806;2022-08-19T00:00:42;100249.34;;;27.65;45.12
50854;BME280;44154;45.506;-122.806;2022-08-19T00:03:08;100235.97;;;27.59;44.63
50854;BME280;44154;45.506;-122.806;2022-08-19T00:05:35;100255.41;;;27.67;45.05
50854;BME280;44154;45.506;-122.806;2022-08-19T00:08:02;100248.56;;;27.60;44.88
50854;BME280;44154;45.506;-122.806;2022-08-19T00:10:28;100270.81;;;27.63;45.07
50854;BME280;44154;45.506;-122.806;2022-08-19T00:12:55;100299.09;;;27.69;44.82
50854;BME280;44154;45.506;-122.806;2022-08-19T00:15:22;100287.53;;;27.67;44.74
50854;BME280;44154;45.506;-122.806;2022-08-19T00:17:48;100282.03;;;27.67;44.79
50854;BME280;44154;45.506;-122.806;2022-08-19T00:20:17;100281.22;;;27.66;45.01
50854;BME280;44154;45.506;-122.806;2022-08-19T00:22:45;100274.63;;;27.67;44.79
50854;BME280;44154;45.506;-122.806;2022-08-19T00:25:13;100283.97;;;27.66;44.79
50854;BME280;44154;45.506;-122.806;2022-08-19T00:27:39;100283.28;;;27.50;44.80
50854;BME280;44154;45.506;-122.806;2022-08-19T00:30:07;100307.66;;;27.62;44.84
50854;BME280;44154;45.506;-122.806;2022-08-19T00:32:35;100221.63;;;27.27;44.80
50854;BME280;44154;45.506;-122.806;2022-08-19T00:35:03;100283.22;;;27.56;45.05
50854;BME280;44154;45.506;-122.806;2022-08-19T00:37:29;100287.69;;;27.51;44.94
50854;BME280;44154;45.506;-122.806;2022-08-19T00:39:55;100237.78;;;27.34;44.87
50854;BME280;44154;45.506;-122.806;2022-08-19T00:42:22;100300.22;;;27.63;44.93
50854;BME280;44154;45.506;-122.806;2022-08-19T00:44:49;100293.91;;;27.62;44.66
50854;BME280;44154;45.506;-122.806;2022-08-19T00:47:16;100268.94;;;27.59;44.93
50854;BME280;44154;45.506;-122.806;2022-08-19T00:49:51;100286.47;;;27.63;45.24
50854;BME280;44154;45.506;-122.806;2022-08-19T00:52:23;100281.28;;;27.61;45.08
50854;BME280;44154;45.506;-122.806;2022-08-19T00:54:53;100271.41;;;27.60;44.88
50854;BME280;44154;45.506;-122.806;2022-08-19T00:57:25;100266.94;;;27.64;44.61
50854;BME280;44154;45.506;-122.806;2022-08-19T00:59:54;100249.97;;;27.57;44.92
50854;BME280;44154;45.506;-122.806;2022-08-19T01:02:21;100268.94;;;27.59;44.91
50854;BME280;44154;45.506;-122.806;2022-08-19T01:04:47;100259.84;;;27.58;44.52
50854;BME280;44154;45.506;-122.806;2022-08-19T01:07:13;100268.06;;;27.63;45.01
50854;BME280;44154;45.506;-122.806;2022-08-19T01:09:40;100268.06;;;27.63;44.99
50854;BME280;44154;45.506;-122.806;2022-08-19T01:12:06;100255.94;;;27.64;44.37
50854;BME280;44154;45.506;-122.806;2022-08-19T01:14:33;100230.47;;;27.59;44.44
50854;BME280;44154;45.506;-122.806;2022-08-19T01:17:01;100244.41;;;27.67;44.39
50854;BME280;44154;45.506;-122.806;2022-08-19T01:19:40;100201.22;;;27.39;44.54
50854;BME280;44154;45.506;-122.806;2022-08-19T01:24:46;100253.81;;;27.85;44.35
50854;BME280;44154;45.506;-122.806;2022-08-19T01:27:12;100270.31;;;27.85;43.80
50854;BME280;44154;45.506;-122.806;2022-08-19T01:29:40;100271.44;;;27.84;44.54
50854;BME280;44154;45.506;-122.806;2022-08-19T01:33:22;100265.56;;;27.96;44.27
50854;BME280;44154;45.506;-122.806;2022-08-19T01:35:48;100252.91;;;27.95;43.98
50854;BME280;44154;45.506;-122.806;2022-08-19T01:38:25;100248.97;;;28.07;44.21
50854;BME280;44154;45.506;-122.806;2022-08-19T01:40:52;100247.28;;;28.11;44.40
50854;BME280;44154;45.506;-122.806;2022-08-19T01:43:18;100256.63;;;28.10;44.22
50854;BME280;44154;45.506;-122.806;2022-08-19T01:45:46;100234.34;;;28.11;43.90
50854;BME280;44154;45.506;-122.806;2022-08-19T01:48:13;100222.75;;;28.14;44.08
50854;BME280;44154;45.506;-122.806;2022-08-19T01:50:40;100220.00;;;28.14;44.03
50854;BME280;44154;45.506;-122.806;2022-08-19T01:53:09;100203.78;;;28.13;44.39
50854;BME280;44154;45.506;-122.806;2022-08-19T01:55:38;100208.94;;;28.19;44.15
50854;BME280;44154;45.506;-122.806;2022-08-19T01:58:05;100221.34;;;28.17;43.63
50854;BME280;44154;45.506;-122.806;2022-08-19T02:00:34;100211.38;;;28.21;43.91
50854;BME280;44154;45.506;-122.806;2022-08-19T02:03:00;100213.09;;;28.17;43.75
50854;BME280;44154;45.506;-122.806;2022-08-19T02:05:27;100192.25;;;28.11;43.89
50854;BME280;44154;45.506;-122.806;2022-08-19T02:07:55;100123.81;;;27.80;43.62
50854;BME280;44154;45.506;-122.806;2022-08-19T02:10:22;100177.66;;;28.10;43.58
50854;BME280;44154;45.506;-122.806;2022-08-19T02:12:49;100203.94;;;28.21;43.65
50854;BME280;44154;45.506;-122.806;2022-08-19T02:15:17;100202.53;;;28.24;44.50
50854;BME280;44154;45.506;-122.806;2022-08-19T02:17:45;100183.78;;;28.26;44.94
50854;BME280;44154;45.506;-122.806;2022-08-19T02:20:12;100180.66;;;28.14;45.06
50854;BME280;44154;45.506;-122.806;2022-08-19T02:22:40;100204.69;;;28.27;45.01
50854;BME280;44154;45.506;-122.806;2022-08-19T02:25:12;100191.66;;;28.14;44.51
50854;BME280;44154;45.506;-122.806;2022-08-19T02:27:40;100223.66;;;28.29;44.68
50854;BME280;44154;45.506;-122.806;2022-08-19T02:30:14;100241.00;;;28.29;44.22
50854;BME280;44154;45.506;-122.806;2022-08-19T02:32:42;100246.91;;;28.17;44.70
50854;BME280;44154;45.506;-122.806;2022-08-19T02:35:08;100288.00;;;28.33;44.49
50854;BME280;44154;45.506;-122.806;2022-08-19T02:37:35;100255.28;;;28.31;44.14
50854;BME280;44154;45.506;-122.806;2022-08-19T02:40:19;100240.72;;;28.31;44.13
50854;BME280;44154;45.506;-122.806;2022-08-19T02:42:45;100227.31;;;28.24;44.47
50854;BME280;44154;45.506;-122.806;2022-08-19T02:45:13;100219.19;;;28.14;43.95
50854;BME280;44154;45.506;-122.806;2022-08-19T02:47:40;100246.22;;;28.31;43.64
50854;BME280;44154;45.506;-122.806;2022-08-19T02:50:06;100252.03;;;28.29;44.21
50854;BME280;44154;45.506;-122.806;2022-08-19T02:52:34;100256.94;;;28.32;44.88
50854;BME280;44154;45.506;-122.806;2022-08-19T02:55:00;100252.53;;;28.31;44.71
50854;BME280;44154;45.506;-122.806;2022-08-19T02:57:27;100253.28;;;28.37;45.13
50854;BME280;44154;45.506;-122.806;2022-08-19T02:59:53;100262.91;;;28.40;45.21
50854;BME280;44154;45.506;-122.806;2022-08-19T03:02:19;100258.50;;;28.38;45.18
50854;BME280;44154;45.506;-122.806;2022-08-19T03:04:46;100255.97;;;28.42;45.66
50854;BME280;44154;45.506;-122.806;2022-08-19T03:07:16;100234.53;;;28.39;45.39
50854;BME280;44154;45.506;-122.806;2022-08-19T03:09:42;100229.34;;;28.37;45.90
50854;BME280;44154;45.506;-122.806;2022-08-19T03:12:09;100254.22;;;28.51;46.03
50854;BME280;44154;45.506;-122.806;2022-08-19T03:14:36;100254.44;;;28.55;45.66
50854;BME280;44154;45.506;-122.806;2022-08-19T03:17:02;100187.38;;;28.27;45.76
50854;BME280;44154;45.506;-122.806;2022-08-19T03:19:30;100218.34;;;28.56;45.76
50854;BME280;44154;45.506;-122.806;2022-08-19T03:21:57;100225.75;;;28.61;45.83
50854;BME280;44154;45.506;-122.806;2022-08-19T03:24:24;100237.28;;;28.63;45.97
50854;BME280;44154;45.506;-122.806;2022-08-19T03:26:52;100242.19;;;28.66;45.59
50854;BME280;44154;45.506;-122.806;2022-08-19T03:29:23;100252.91;;;28.68;46.01
50854;BME280;44154;45.506;-122.806;2022-08-19T03:31:49;100222.59;;;28.49;45.93
50854;BME280;44154;45.506;-122.806;2022-08-19T03:34:25;100264.16;;;28.71;46.21
50854;BME280;44154;45.506;-122.806;2022-08-19T03:36:53;100272.94;;;28.73;46.00
50854;BME280;44154;45.506;-122.806;2022-08-19T03:39:21;100270.72;;;28.76;45.83
50854;BME280;44154;45.506;-122.806;2022-08-19T03:41:49;100262.75;;;28.74;45.75
50854;BME280;44154;45.506;-122.806;2022-08-19T03:44:21;100268.19;;;28.79;45.67
50854;BME280;44154;45.506;-122.806;2022-08-19T03:46:52;100273.38;;;28.81;45.69
50854;BME280;44154;45.506;-122.806;2022-08-19T03:49:22;100275.03;;;28.82;45.92
50854;BME280;44154;45.506;-122.806;2022-08-19T03:51:50;100277.50;;;28.83;45.49
50854;BME280;44154;45.506;-122.806;2022-08-19T03:54:19;100274.44;;;28.85;45.55
50854;BME280;44154;45.506;-122.806;2022-08-19T03:56:48;100261.31;;;28.77;45.55
50854;BME280;44154;45.506;-122.806;2022-08-19T03:59:19;100272.22;;;28.87;45.89
50854;BME280;44154;45.506;-122.806;2022-08-19T04:01:46;100261.28;;;28.82;45.57
50854;BME280;44154;45.506;-122.806;2022-08-19T04:04:12;100259.78;;;28.89;45.60
50854;BME280;44154;45.506;-122.806;2022-08-19T04:06:39;100266.13;;;28.90;45.47
50854;BME280;44154;45.506;-122.806;2022-08-19T04:09:08;100266.13;;;28.90;45.98
50854;BME280;44154;45.506;-122.806;2022-08-19T04:11:42;100272.44;;;28.90;45.80
50854;BME280;44154;45.506;-122.806;2022-08-19T04:14:11;100278.44;;;28.93;45.71
50854;BME280;44154;45.506;-122.806;2022-08-19T04:16:38;100293.88;;;28.94;45.87
50854;BME280;44154;45.506;-122.806;2022-08-19T04:19:05;100182.19;;;28.25;45.56
50854;BME280;44154;45.506;-122.806;2022-08-19T04:21:32;100287.25;;;28.95;45.50
50854;BME280;44154;45.506;-122.806;2022-08-19T04:23:59;100290.81;;;28.95;45.64
50854;BME280;44154;45.506;-122.806;2022-08-19T04:26:28;100282.56;;;28.95;45.29
50854;BME280;44154;45.506;-122.806;2022-08-19T04:28:58;100284.19;;;28.96;45.39
50854;BME280;44154;45.506;-122.806;2022-08-19T04:31:27;100280.34;;;28.97;45.38
50854;BME280;44154;45.506;-122.806;2022-08-19T04:33:58;100286.66;;;28.98;45.41
50854;BME280;44154;45.506;-122.806;2022-08-19T04:36:28;100294.13;;;28.97;45.27
50854;BME280;44154;45.506;-122.806;2022-08-19T04:39:01;100290.22;;;28.98;45.54
50854;BME280;44154;45.506;-122.806;2022-08-19T04:41:28;100289.09;;;28.99;45.53
50854;BME280;44154;45.506;-122.806;2022-08-19T04:44:13;100288.00;;;29.00;45.50
50854;BME280;44154;45.506;-122.806;2022-08-19T04:46:39;100267.53;;;28.87;45.46
50854;BME280;44154;45.506;-122.806;2022-08-19T04:49:07;100284.94;;;29.02;45.30
50854;BME280;44154;45.506;-122.806;2022-08-19T04:51:34;100285.75;;;29.02;45.56
50854;BME280;44154;45.506;-122.806;2022-08-19T04:54:02;100295.47;;;29.00;45.11
50854;BME280;44154;45.506;-122.806;2022-08-19T04:56:28;100274.44;;;28.85;45.25
50854;BME280;44154;45.506;-122.806;2022-08-19T04:58:56;100295.97;;;29.02;45.28
50854;BME280;44154;45.506;-122.806;2022-08-19T05:01:28;100289.34;;;29.03;45.16
50854;BME280;44154;45.506;-122.806;2022-08-19T05:03:56;100290.16;;;29.03;45.00
50854;BME280;44154;45.506;-122.806;2022-08-19T05:06:23;100298.41;;;29.03;45.22
50854;BME280;44154;45.506;-122.806;2022-08-19T05:08:51;100290.16;;;29.03;45.39
50854;BME280;44154;45.506;-122.806;2022-08-19T05:11:20;100297.31;;;29.04;45.29
50854;BME280;44154;45.506;-122.806;2022-08-19T05:13:47;100303.63;;;29.05;45.18
50854;BME280;44154;45.506;-122.806;2022-08-19T05:16:19;100300.06;;;29.04;45.20
50854;BME280;44154;45.506;-122.806;2022-08-19T05:18:46;100297.00;;;29.06;45.14
50854;BME280;44154;45.506;-122.806;2022-08-19T05:21:31;100282.84;;;28.94;45.17
50854;BME280;44154;45.506;-122.806;2022-08-19T05:24:16;100306.09;;;29.06;45.02
50854;BME280;44154;45.506;-122.806;2022-08-19T05:26:46;100308.84;;;29.06;44.83
50854;BME280;44154;45.506;-122.806;2022-08-19T05:29:15;100310.50;;;29.07;44.95
50854;BME280;44154;45.506;-122.806;2022-08-19T05:31:42;100292.00;;;28.89;45.06
50854;BME280;44154;45.506;-122.806;2022-08-19T05:34:09;100299.16;;;28.90;44.79
50854;BME280;44154;45.506;-122.806;2022-08-19T05:36:39;100321.50;;;29.07;44.66
50854;BME280;44154;45.506;-122.806;2022-08-19T05:39:07;100297.00;;;28.87;45.24
50854;BME280;44154;45.506;-122.806;2022-08-19T05:41:34;100326.47;;;29.05;45.60
50854;BME280;44154;45.506;-122.806;2022-08-19T05:44:05;100311.00;;;28.90;45.97
50854;BME280;44154;45.506;-122.806;2022-08-19T05:46:38;100295.66;;;28.84;46.88
50854;BME280;44154;45.506;-122.806;2022-08-19T05:49:06;100337.50;;;29.05;47.17
50854;BME280;44154;45.506;-122.806;2022-08-19T05:51:33;100336.69;;;29.05;46.44
50854;BME280;44154;45.506;-122.806;2022-08-19T05:54:05;100334.25;;;29.03;46.81
50854;BME280;44154;45.506;-122.806;2022-08-19T05:56:33;100332.53;;;29.07;47.20
50854;BME280;44154;45.506;-122.806;2022-08-19T05:59:00;100323.97;;;29.09;47.84
50854;BME280;44154;45.506;-122.806;2022-08-19T06:01:26;100322.03;;;29.10;48.10
50854;BME280;44154;45.506;-122.806;2022-08-19T06:03:53;100324.78;;;29.10;48.62
50854;BME280;44154;45.506;-122.806;2022-08-19T06:06:20;100316.16;;;28.97;49.01
50854;BME280;44154;45.506;-122.806;2022-08-19T06:08:46;100321.72;;;29.11;48.54
50854;BME280;44154;45.506;-122.806;2022-08-19T06:11:45;100320.91;;;29.11;48.88
50854;BME280;44154;45.506;-122.806;2022-08-19T06:14:20;100318.66;;;29.13;48.94
50854;BME280;44154;45.506;-122.806;2022-08-19T06:16:48;100320.31;;;29.14;49.02
50854;BME280;44154;45.506;-122.806;2022-08-19T06:19:18;100320.84;;;29.16;49.40
50854;BME280;44154;45.506;-122.806;2022-08-19T06:21:47;100302.28;;;29.02;49.75
50854;BME280;44154;45.506;-122.806;2022-08-19T06:24:16;100286.97;;;28.96;49.75
50854;BME280;44154;45.506;-122.806;2022-08-19T06:26:45;100317.56;;;29.14;49.66
50854;BME280;44154;45.506;-122.806;2022-08-19T06:29:14;100323.59;;;29.16;49.55
50854;BME280;44154;45.506;-122.806;2022-08-19T06:31:44;100320.56;;;29.17;49.15
50854;BME280;44154;45.506;-122.806;2022-08-19T06:34:11;100321.34;;;29.18;49.00
50854;BME280;44154;45.506;-122.806;2022-08-19T06:36:40;100290.75;;;29.00;48.90
50854;BME280;44154;45.506;-122.806;2022-08-19T06:39:11;100310.94;;;29.15;48.96
50854;BME280;44154;45.506;-122.806;2022-08-19T06:41:39;100307.13;;;29.11;48.78
50854;BME280;44154;45.506;-122.806;2022-08-19T06:44:06;100322.16;;;29.18;48.73
50854;BME280;44154;45.506;-122.806;2022-08-19T06:46:33;100291.06;;;28.99;48.69
50854;BME280;44154;45.506;-122.806;2022-08-19T06:49:00;100324.63;;;29.20;48.75
50854;BME280;44154;45.506;-122.806;2022-08-19T06:51:26;100319.09;;;29.20;48.66
50854;BME280;44154;45.506;-122.806;2022-08-19T06:53:54;100318.91;;;29.16;48.51
50854;BME280;44154;45.506;-122.806;2022-08-19T06:56:26;100335.66;;;29.20;49.05
50854;BME280;44154;45.506;-122.806;2022-08-19T06:59:04;100337.28;;;29.21;48.61
50854;BME280;44154;45.506;-122.806;2022-08-19T07:01:37;100317.50;;;29.00;48.68
50854;BME280;44154;45.506;-122.806;2022-08-19T07:04:06;100341.16;;;29.20;48.79
50854;BME280;44154;45.506;-122.806;2022-08-19T07:06:32;100337.88;;;29.18;48.56
50854;BME280;44154;45.506;-122.806;2022-08-19T07:08:59;100336.25;;;29.17;49.02
50854;BME280;44154;45.506;-122.806;2022-08-19T07:11:25;100300.22;;;28.94;48.72
50854;BME280;44154;45.506;-122.806;2022-08-19T07:13:51;100339.00;;;29.17;48.74
50854;BME280;44154;45.506;-122.806;2022-08-19T07:16:19;100346.47;;;29.16;48.69
50854;BME280;44154;45.506;-122.806;2022-08-19T07:18:47;100347.34;;;29.12;48.87
50854;BME280;44154;45.506;-122.806;2022-08-19T07:21:25;100356.44;;;29.12;49.04
50854;BME280;44154;45.506;-122.806;2022-08-19T07:23:55;100346.81;;;29.10;48.90
50854;BME280;44154;45.506;-122.806;2022-08-19T07:26:29;100345.19;;;29.09;48.86
50854;BME280;44154;45.506;-122.806;2022-08-19T07:28:56;100350.72;;;29.09;48.80
50854;BME280;44154;45.506;-122.806;2022-08-19T07:31:25;100343.84;;;29.06;48.77
50854;BME280;44154;45.506;-122.806;2022-08-19T07:33:53;100344.66;;;29.06;48.67
50854;BME280;44154;45.506;-122.806;2022-08-19T07:36:26;100342.81;;;29.02;49.11
50854;BME280;44154;45.506;-122.806;2022-08-19T07:38:59;100344.16;;;29.04;49.14
50854;BME280;44154;45.506;-122.806;2022-08-19T07:41:27;100341.41;;;29.04;49.41
50854;BME280;44154;45.506;-122.806;2022-08-19T07:43:55;100339.75;;;29.03;49.28
50854;BME280;44154;45.506;-122.806;2022-08-19T07:46:21;100347.19;;;29.03;49.00
50854;BME280;44154;45.506;-122.806;2022-08-19T07:48:48;100322.38;;;28.84;49.41
50854;BME280;44154;45.506;-122.806;2022-08-19T07:51:19;100352.72;;;29.03;49.07
50854;BME280;44154;45.506;-122.806;2022-08-19T07:53:47;100354.94;;;29.01;48.89
50854;BME280;44154;45.506;-122.806;2022-08-19T07:56:15;100351.56;;;29.04;48.83
50854;BME280;44154;45.506;-122.806;2022-08-19T07:58:43;100348.00;;;29.03;48.90
50854;BME280;44154;45.506;-122.806;2022-08-19T08:01:13;100346.44;;;28.97;48.75
50854;BME280;44154;45.506;-122.806;2022-08-19T08:03:40;100339.66;;;28.89;48.45
50854;BME280;44154;45.506;-122.806;2022-08-19T08:06:25;100347.44;;;28.82;48.28
50854;BME280;44154;45.506;-122.806;2022-08-19T08:09:10;100349.75;;;28.75;48.71
50854;BME280;44154;45.506;-122.806;2022-08-19T08:11:42;100344.91;;;28.67;49.08
50854;BME280;44154;45.506;-122.806;2022-08-19T08:14:17;100348.78;;;28.66;47.91
50854;BME280;44154;45.506;-122.806;2022-08-19T08:16:44;100346.03;;;28.61;49.00
50854;BME280;44154;45.506;-122.806;2022-08-19T08:19:12;100345.81;;;28.57;49.51
50854;BME280;44154;45.506;-122.806;2022-08-19T08:21:42;100349.16;;;28.54;49.79
50854;BME280;44154;45.506;-122.806;2022-08-19T08:24:09;100346.16;;;28.50;50.07
50854;BME280;44154;45.506;-122.806;2022-08-19T08:26:35;100343.69;;;28.49;50.16
50854;BME280;44154;45.506;-122.806;2022-08-19T08:29:02;100347.84;;;28.46;50.18
50854;BME280;44154;45.506;-122.806;2022-08-19T08:31:28;100349.53;;;28.42;50.64
50854;BME280;44154;45.506;-122.806;2022-08-19T08:33:55;100317.13;;;28.15;50.62
50854;BME280;44154;45.506;-122.806;2022-08-19T08:36:21;100356.81;;;28.33;50.80
50854;BME280;44154;45.506;-122.806;2022-08-19T08:38:47;100339.38;;;28.13;51.04
50854;BME280;44154;45.506;-122.806;2022-08-19T08:43:51;100366.53;;;28.25;50.74
50854;BME280;44154;45.506;-122.806;2022-08-19T08:49:04;100374.53;;;28.21;50.15
50854;BME280;44154;45.506;-122.806;2022-08-19T08:51:42;100376.47;;;28.21;50.23
50854;BME280;44154;45.506;-122.806;2022-08-19T08:54:12;100371.56;;;28.18;50.54
50854;BME280;44154;45.506;-122.806;2022-08-19T08:56:41;100372.66;;;28.17;50.46
50854;BME280;44154;45.506;-122.806;2022-08-19T08:59:33;100362.75;;;28.16;49.96
50854;BME280;44154;45.506;-122.806;2022-08-19T09:02:00;100368.84;;;28.13;50.29
50854;BME280;44154;45.506;-122.806;2022-08-19T09:04:27;100367.78;;;28.09;50.27
50854;BME280;44154;45.506;-122.806;2022-08-19T09:07:06;100374.66;;;28.06;50.01
50854;BME280;44154;45.506;-122.806;2022-08-19T09:09:49;100355.88;;;27.84;50.47
50854;BME280;44154;45.506;-122.806;2022-08-19T09:14:58;100378.66;;;27.90;50.04
50854;BME280;44154;45.506;-122.806;2022-08-19T09:17:28;100386.09;;;27.89;50.07
50854;BME280;44154;45.506;-122.806;2022-08-19T09:20:19;100382.78;;;27.87;49.45
50854;BME280;44154;45.506;-122.806;2022-08-19T09:22:45;100390.50;;;27.85;49.39
50854;BME280;44154;45.506;-122.806;2022-08-19T09:25:15;100379.84;;;27.78;48.28
50854;BME280;44154;45.506;-122.806;2022-08-19T09:27:42;100393.84;;;27.82;49.30
50854;BME280;44154;45.506;-122.806;2022-08-19T09:30:16;100396.03;;;27.80;48.66
50854;BME280;44154;45.506;-122.806;2022-08-19T09:32:43;100399.38;;;27.77;49.19
50854;BME280;44154;45.506;-122.806;2022-08-19T09:35:12;100349.53;;;27.49;48.21
50854;BME280;44154;45.506;-122.806;2022-08-19T09:37:39;100390.34;;;27.71;49.22
50854;BME280;44154;45.506;-122.806;2022-08-19T09:40:06;100383.53;;;27.63;48.49
50854;BME280;44154;45.506;-122.806;2022-08-19T09:42:32;100400.84;;;27.64;48.13
50854;BME280;44154;45.506;-122.806;2022-08-19T09:45:00;100381.19;;;27.41;47.50
50854;BME280;44154;45.506;-122.806;2022-08-19T09:47:26;100404.75;;;27.52;47.66
50854;BME280;44154;45.506;-122.806;2022-08-19T09:49:52;100372.19;;;27.25;47.61
50854;BME280;44154;45.506;-122.806;2022-08-19T09:52:18;100425.94;;;27.52;48.44
50854;BME280;44154;45.506;-122.806;2022-08-19T09:54:44;100429.53;;;27.47;48.60
50854;BME280;44154;45.506;-122.806;2022-08-19T09:57:10;100425.44;;;27.45;48.52
50854;BME280;44154;45.506;-122.806;2022-08-19T09:59:36;100420.81;;;27.35;48.61
50854;BME280;44154;45.506;-122.806;2022-08-19T10:02:04;100430.41;;;27.38;49.02
50854;BME280;44154;45.506;-122.806;2022-08-19T10:04:30;100433.97;;;27.33;49.02
50854;BME280;44154;45.506;-122.806;2022-08-19T10:07:15;100407.97;;;27.15;48.15
50854;BME280;44154;45.506;-122.806;2022-08-19T10:09:41;100432.06;;;27.28;48.30
50854;BME280;44154;45.506;-122.806;2022-08-19T10:12:08;100431.28;;;27.23;48.17
50854;BME280;44154;45.506;-122.806;2022-08-19T10:14:34;100429.91;;;27.20;47.99
50854;BME280;44154;45.506;-122.806;2022-08-19T10:17:01;100436.22;;;27.21;48.28
50854;BME280;44154;45.506;-122.806;2022-08-19T10:19:28;100411.84;;;27.04;47.96
50854;BME280;44154;45.506;-122.806;2022-08-19T10:22:04;100415.44;;;27.04;47.83
50854;BME280;44154;45.506;-122.806;2022-08-19T10:24:31;100416.84;;;26.91;48.57
50854;BME280;44154;45.506;-122.806;2022-08-19T10:26:58;100436.00;;;27.07;48.59
50854;BME280;44154;45.506;-122.806;2022-08-19T10:29:25;100437.13;;;27.06;48.46
50854;BME280;44154;45.506;-122.806;2022-08-19T10:31:53;100446.75;;;27.03;47.06
50854;BME280;44154;45.506;-122.806;2022-08-19T10:34:19;100455.00;;;26.98;48.13
50854;BME280;44154;45.506;-122.806;2022-08-19T10:36:46;100456.38;;;26.95;47.75
50854;BME280;44154;45.506;-122.806;2022-08-19T10:39:12;100449.00;;;26.80;48.32
50854;BME280;44154;45.506;-122.806;2022-08-19T10:41:39;100465.72;;;26.89;48.62
50854;BME280;44154;45.506;-122.806;2022-08-19T10:44:08;100469.31;;;26.90;48.25
50854;BME280;44154;45.506;-122.806;2022-08-19T10:46:38;100471.78;;;26.91;48.28
50854;BME280;44154;45.506;-122.806;2022-08-19T10:49:09;100467.91;;;26.92;48.39
50854;BME280;44154;45.506;-122.806;2022-08-19T10:51:35;100452.88;;;26.79;48.22
50854;BME280;44154;45.506;-122.806;2022-08-19T10:54:20;100472.03;;;26.95;48.03
50854;BME280;44154;45.506;-122.806;2022-08-19T10:56:46;100477.53;;;26.95;47.78
50854;BME280;44154;45.506;-122.806;2022-08-19T10:59:23;100477.53;;;26.95;47.94
50854;BME280;44154;45.506;-122.806;2022-08-19T11:01:51;100469.56;;;26.93;47.76
50854;BME280;44154;45.506;-122.806;2022-08-19T11:04:18;100430.63;;;26.65;47.91
50854;BME280;44154;45.506;-122.806;2022-08-19T11:06:47;100459.97;;;26.80;47.76
50854;BME280;44154;45.506;-122.806;2022-08-19T11:09:15;100481.91;;;26.91;48.08
50854;BME280;44154;45.506;-122.806;2022-08-19T11:11:42;100471.25;;;26.84;48.11
50854;BME280;44154;45.506;-122.806;2022-08-19T11:14:10;100477.84;;;26.88;47.72
50854;BME280;44154;45.506;-122.806;2022-08-19T11:16:37;100487.97;;;26.88;48.19
50854;BME280;44154;45.506;-122.806;2022-08-19T11:19:08;100487.44;;;26.86;47.78
50854;BME280;44154;45.506;-122.806;2022-08-19T11:21:38;100487.44;;;26.86;47.74
50854;BME280;44154;45.506;-122.806;2022-08-19T11:24:16;100486.06;;;26.83;47.68
50854;BME280;44154;45.506;-122.806;2022-08-19T11:26:43;100486.34;;;26.81;47.91
50854;BME280;44154;45.506;-122.806;2022-08-19T11:29:12;100483.31;;;26.78;47.91
50854;BME280;44154;45.506;-122.806;2022-08-19T11:31:44;100472.34;;;26.67;47.85
50854;BME280;44154;45.506;-122.806;2022-08-19T11:34:14;100487.75;;;26.74;47.65
50854;BME280;44154;45.506;-122.806;2022-08-19T11:36:44;100488.84;;;26.73;47.82
50854;BME280;44154;45.506;-122.806;2022-08-19T11:39:12;100496.50;;;26.71;47.57
50854;BME280;44154;45.506;-122.806;2022-08-19T11:41:39;100503.13;;;26.70;47.36
50854;BME280;44154;45.506;-122.806;2022-08-19T11:44:07;100483.88;;;26.49;47.53
50854;BME280;44154;45.506;-122.806;2022-08-19T11:46:34;100499.78;;;26.57;47.56
50854;BME280;44154;45.506;-122.806;2022-08-19T11:49:02;100508.03;;;26.62;47.81
50854;BME280;44154;45.506;-122.806;2022-08-19T11:51:30;100470.72;;;26.36;47.85
50854;BME280;44154;45.506;-122.806;2022-08-19T11:53:57;100511.06;;;26.61;47.58
50854;BME280;44154;45.506;-122.806;2022-08-19T11:56:25;100515.72;;;26.60;47.45
50854;BME280;44154;45.506;-122.806;2022-08-19T11:58:52;100526.44;;;26.57;47.51
50854;BME280;44154;45.506;-122.806;2022-08-19T12:01:21;100520.66;;;26.53;47.85
50854;BME280;44154;45.506;-122.806;2022-08-19T12:03:49;100509.69;;;26.43;47.53
50854;BME280;44154;45.506;-122.806;2022-08-19T12:06:19;100527.78;;;26.49;47.84
50854;BME280;44154;45.506;-122.806;2022-08-19T12:08:45;100542.63;;;26.48;47.63
50854;BME280;44154;45.506;-122.806;2022-08-19T12:11:13;100539.88;;;26.48;47.68
50854;BME280;44154;45.506;-122.806;2022-08-19T12:13:41;100503.66;;;26.25;47.47
50854;BME280;44154;45.506;-122.806;2022-08-19T12:16:12;100538.50;;;26.45;47.37
50854;BME280;44154;45.506;-122.806;2022-08-19T12:18:40;100543.19;;;26.45;47.44
50854;BME280;44154;45.506;-122.806;2022-08-19T12:21:09;100536.03;;;26.44;47.34
50854;BME280;44154;45.506;-122.806;2022-08-19T12:23:37;100538.22;;;26.42;47.42
50854;BME280;44154;45.506;-122.806;2022-08-19T12:26:04;100541.50;;;26.39;47.68
50854;BME280;44154;45.506;-122.806;2022-08-19T12:28:30;100531.09;;;26.36;47.60
50854;BME280;44154;45.506;-122.806;2022-08-19T12:30:57;100538.78;;;26.34;47.50
50854;BME280;44154;45.506;-122.806;2022-08-19T12:33:23;100503.63;;;26.05;47.54
50854;BME280;44154;45.506;-122.806;2022-08-19T12:35:53;100521.22;;;26.09;47.88
50854;BME280;44154;45.506;-122.806;2022-08-19T12:38:20;100559.34;;;26.31;47.59
50854;BME280;44154;45.506;-122.806;2022-08-19T12:40:50;100564.03;;;26.30;47.35